createdAt,value
2018-11-26T00:00:04.271Z,15.57
2018-11-26T00:02:34.991Z,15.30
2018-11-26T00:05:05.553Z,15.20
2018-11-26T00:07:50.848Z,13.40
2018-11-26T00:10:38.460Z,15.43
2018-11-26T00:13:08.927Z,14.93
2018-11-26T00:15:39.719Z,14.57
2018-11-26T00:18:10.696Z,14.70
2018-11-26T00:20:41.590Z,14.97
2018-11-26T00:23:12.304Z,14.43
2018-11-26T00:25:43.025Z,15.20
2018-11-26T00:28:13.643Z,15.20
2018-11-26T00:30:44.348Z,14.67
2018-11-26T00:33:14.969Z,16.10
2018-11-26T00:35:45.640Z,14.87
2018-11-26T00:38:16.281Z,16.30
2018-11-26T00:40:46.949Z,15.40
2018-11-26T00:43:17.669Z,17.03
2018-11-26T00:45:48.360Z,16.00
2018-11-26T00:48:19.117Z,15.33
2018-11-26T00:50:50.620Z,16.17
2018-11-26T00:53:21.505Z,14.38
2018-11-26T00:55:52.169Z,15.77
2018-11-26T00:58:22.948Z,14.73
2018-11-26T01:00:53.906Z,13.77
2018-11-26T01:03:24.705Z,12.93
2018-11-26T01:05:55.289Z,14.47
2018-11-26T01:08:26.150Z,13.80
2018-11-26T01:10:56.984Z,13.00
2018-11-26T01:13:27.629Z,13.63
2018-11-26T01:15:58.565Z,14.13
2018-11-26T01:18:29.205Z,12.80
2018-11-26T01:21:00.111Z,12.40
2018-11-26T01:23:31.064Z,12.93
2018-11-26T01:26:01.624Z,11.73
2018-11-26T01:28:32.653Z,11.10
2018-11-26T01:31:03.308Z,12.27
2018-11-26T01:33:34.096Z,11.60
2018-11-26T01:36:05.764Z,11.30
2018-11-26T01:38:36.367Z,10.40
2018-11-26T01:41:08.344Z,11.20
2018-11-26T01:43:38.969Z,11.30
2018-11-26T01:46:10.022Z,9.93
2018-11-26T01:48:40.654Z,10.77
2018-11-26T01:51:11.680Z,10.43
2018-11-26T01:53:42.264Z,10.70
2018-11-26T01:56:13.264Z,11.00
2018-11-26T01:58:44.183Z,10.63
2018-11-26T02:01:14.837Z,9.90
2018-11-26T02:03:45.947Z,10.30
2018-11-26T02:06:16.607Z,10.93
2018-11-26T02:08:47.236Z,9.93
2018-11-26T02:11:18.129Z,11.00
2018-11-26T02:13:50.020Z,10.43
2018-11-26T02:16:20.623Z,10.47
2018-11-26T02:18:51.491Z,11.20
2018-11-26T02:21:22.405Z,11.00
2018-11-26T02:23:53.264Z,11.20
2018-11-26T02:26:24.188Z,11.95
2018-11-26T02:28:54.848Z,10.77
2018-11-26T02:31:25.448Z,10.47
2018-11-26T02:33:56.489Z,11.60
2018-11-26T02:36:27.328Z,11.45
2018-11-26T02:38:58.618Z,11.90
2018-11-26T02:41:29.222Z,12.53
2018-11-26T02:44:00.197Z,12.20
2018-11-26T02:46:30.736Z,12.63
2018-11-26T02:49:01.550Z,14.10
2018-11-26T02:51:32.193Z,14.10
2018-11-26T02:54:03.296Z,13.17
2018-11-26T02:56:35.003Z,14.15
2018-11-26T02:59:06.261Z,14.60
2018-11-26T03:01:37.154Z,13.15
2018-11-26T03:04:08.195Z,14.87
2018-11-26T03:06:39.747Z,14.80
2018-11-26T03:09:10.341Z,14.50
2018-11-26T03:11:41.388Z,14.03
2018-11-26T03:14:12.291Z,14.60
2018-11-26T03:16:43.406Z,14.23
2018-11-26T03:19:14.402Z,14.00
2018-11-26T03:21:46.885Z,14.38
2018-11-26T03:24:17.804Z,14.68
2018-11-26T03:26:48.865Z,13.58
2018-11-26T03:29:19.823Z,12.98
2018-11-26T03:31:50.739Z,14.83
2018-11-26T03:34:21.590Z,13.20
2018-11-26T03:36:52.722Z,13.38
2018-11-26T03:39:23.661Z,12.90
2018-11-26T03:41:54.904Z,13.43
2018-11-26T03:44:25.447Z,13.90
2018-11-26T03:46:56.669Z,14.80
2018-11-26T03:49:27.589Z,14.00
2018-11-26T03:51:58.544Z,14.43
2018-11-26T03:54:29.377Z,13.80
2018-11-26T03:57:00.348Z,13.55
2018-11-26T03:59:32.179Z,14.90
2018-11-26T04:02:03.413Z,15.43
2018-11-26T04:04:34.479Z,15.43
2018-11-26T04:07:05.691Z,15.10
2018-11-26T04:09:36.549Z,14.85
2018-11-26T04:12:07.459Z,15.88
2018-11-26T04:14:38.747Z,14.50
2018-11-26T04:17:09.661Z,14.40
2018-11-26T04:19:40.408Z,14.20
2018-11-26T04:22:11.326Z,14.47
2018-11-26T04:24:42.309Z,15.37
2018-11-26T04:27:13.206Z,15.60
2018-11-26T04:29:44.135Z,13.85
2018-11-26T04:32:15.083Z,15.10
2018-11-26T04:34:45.929Z,15.00
2018-11-26T04:37:16.510Z,14.23
2018-11-26T04:39:47.293Z,14.43
2018-11-26T04:42:18.369Z,14.85
2018-11-26T04:44:49.301Z,14.93
2018-11-26T04:47:20.513Z,15.20
2018-11-26T04:49:51.202Z,15.28
2018-11-26T04:52:22.369Z,15.28
2018-11-26T04:54:53.842Z,16.73
2018-11-26T04:57:25.166Z,15.00
2018-11-26T04:59:56.316Z,15.27
2018-11-26T05:02:27.229Z,16.05
2018-11-26T05:05:04.429Z,15.20
2018-11-26T05:07:35.541Z,16.20
2018-11-26T05:10:08.657Z,15.40
2018-11-26T05:12:39.500Z,16.07
2018-11-26T05:15:13.691Z,15.27
2018-11-26T05:17:45.176Z,16.03
2018-11-26T05:20:16.121Z,17.73
2018-11-26T05:22:47.065Z,16.57
2018-11-26T05:25:17.643Z,16.50
2018-11-26T05:27:48.534Z,16.32
2018-11-26T05:30:19.381Z,16.80
2018-11-26T05:32:50.297Z,16.82
2018-11-26T05:35:21.336Z,15.23
2018-11-26T05:37:52.197Z,16.30
2018-11-26T05:40:23.298Z,16.07
2018-11-26T05:42:54.348Z,16.77
2018-11-26T05:45:25.385Z,18.00
2018-11-26T05:47:56.336Z,16.23
2018-11-26T05:50:27.293Z,16.37
2018-11-26T05:52:58.202Z,17.05
2018-11-26T05:55:29.050Z,22.13
2018-11-26T05:58:00.065Z,16.48
2018-11-26T06:00:33.271Z,17.95
2018-11-26T06:03:05.024Z,18.32
2018-11-26T06:05:36.496Z,15.85
2018-11-26T06:08:07.689Z,18.55
2018-11-26T06:10:40.919Z,16.27
2018-11-26T06:13:12.328Z,16.62
2018-11-26T06:15:42.997Z,17.13
2018-11-26T06:18:13.861Z,17.00
2018-11-26T06:20:45.888Z,17.37
2018-11-26T06:23:16.851Z,17.15
2018-11-26T06:25:47.527Z,15.40
2018-11-26T06:28:18.222Z,15.03
2018-11-26T06:30:49.953Z,16.57
2018-11-26T06:33:21.010Z,16.30
2018-11-26T06:35:52.241Z,15.18
2018-11-26T06:38:23.192Z,15.00
2018-11-26T06:40:54.812Z,15.78
2018-11-26T06:43:25.778Z,18.20
2018-11-26T06:45:56.336Z,17.50
2018-11-26T06:48:27.960Z,15.43
2018-11-26T06:50:58.528Z,17.90
2018-11-26T06:53:29.733Z,15.72
2018-11-26T06:56:00.369Z,18.60
2018-11-26T06:58:31.216Z,16.32
2018-11-26T07:01:01.779Z,17.83
2018-11-26T07:03:32.365Z,16.07
2018-11-26T07:06:03.250Z,14.30
2018-11-26T07:08:34.755Z,14.87
2018-11-26T07:11:06.368Z,15.73
2018-11-26T07:13:36.941Z,14.37
2018-11-26T07:16:07.248Z,15.00
2018-11-26T07:18:38.537Z,13.63
2018-11-26T07:21:09.142Z,15.40
2018-11-26T07:23:40.085Z,15.48
2018-11-26T07:26:10.909Z,17.35
2018-11-26T07:28:41.532Z,16.57
2018-11-26T07:31:12.668Z,17.87
2018-11-26T07:33:43.617Z,17.40
2018-11-26T07:36:15.170Z,17.10
2018-11-26T07:38:45.789Z,13.93
2018-11-26T07:41:16.416Z,15.27
2018-11-26T07:43:47.073Z,15.43
2018-11-26T07:46:17.649Z,15.37
2018-11-26T07:48:48.321Z,15.20
2018-11-26T07:51:19.363Z,14.90
2018-11-26T07:53:50.843Z,14.80
2018-11-26T07:56:22.677Z,15.00
2018-11-26T07:58:53.416Z,15.37
2018-11-26T08:01:24.023Z,15.43
2018-11-26T08:03:54.676Z,23.70
2018-11-26T08:06:25.921Z,15.65
2018-11-26T08:08:56.683Z,16.47
2018-11-26T08:11:27.477Z,16.77
2018-11-26T08:13:59.121Z,16.40
2018-11-26T08:16:29.880Z,16.70
2018-11-26T08:19:00.934Z,15.93
2018-11-26T08:21:31.243Z,16.33
2018-11-26T08:24:02.265Z,16.47
2018-11-26T08:26:32.882Z,15.67
2018-11-26T08:29:03.736Z,16.77
2018-11-26T08:31:34.632Z,17.87
2018-11-26T08:34:05.621Z,17.23
2018-11-26T08:36:41.444Z,16.53
2018-11-26T08:39:18.648Z,15.87
2018-11-26T08:41:53.877Z,16.60
2018-11-26T08:44:29.997Z,16.50
2018-11-26T08:47:03.851Z,17.53
2018-11-26T08:49:34.481Z,17.60
2018-11-26T08:52:05.437Z,16.65
2018-11-26T08:54:36.233Z,17.60
2018-11-26T08:57:09.498Z,16.40
2018-11-26T08:59:40.311Z,17.27
2018-11-26T09:02:10.979Z,17.57
2018-11-26T09:04:46.020Z,16.95
2018-11-26T09:07:16.861Z,17.20
2018-11-26T09:09:47.701Z,18.85
2018-11-26T09:12:18.905Z,17.12
2018-11-26T09:14:49.781Z,17.07
2018-11-26T09:17:21.058Z,17.62
2018-11-26T09:19:51.972Z,19.05
2018-11-26T09:22:22.928Z,18.12
2018-11-26T09:24:54.111Z,18.90
2018-11-26T09:27:25.417Z,19.57
2018-11-26T09:29:56.048Z,21.43
2018-11-26T09:32:26.748Z,19.50
2018-11-26T09:34:58.338Z,17.30
2018-11-26T09:37:28.925Z,18.53
2018-11-26T09:39:59.797Z,18.90
2018-11-26T09:42:31.195Z,17.83
2018-11-26T09:45:01.901Z,16.63
2018-11-26T09:47:32.792Z,17.70
2018-11-26T09:50:03.481Z,17.10
2018-11-26T09:52:34.296Z,17.80
2018-11-26T09:55:05.906Z,18.60
2018-11-26T09:57:36.478Z,16.50
2018-11-26T10:00:16.517Z,18.17
2018-11-26T10:02:49.853Z,17.33
2018-11-26T10:05:23.200Z,17.07
2018-11-26T10:07:53.496Z,18.30
2018-11-26T10:10:24.560Z,16.93
2018-11-26T10:12:55.196Z,19.03
2018-11-26T10:15:27.485Z,18.80
2018-11-26T10:17:58.092Z,17.40
2018-11-26T10:20:28.841Z,18.80
2018-11-26T10:23:00.192Z,20.88
2018-11-26T10:25:30.764Z,19.63
2018-11-26T10:28:01.536Z,20.07
2018-11-26T10:30:32.176Z,18.90
2018-11-26T10:33:03.014Z,17.70
2018-11-26T10:35:33.734Z,18.90
2018-11-26T10:38:04.590Z,21.40
2018-11-26T10:40:35.429Z,21.17
2018-11-26T10:43:11.506Z,21.20
2018-11-26T10:45:39.149Z,20.97
2018-11-26T10:48:09.849Z,21.80
2018-11-26T10:50:40.509Z,22.00
2018-11-26T10:53:11.214Z,21.83
2018-11-26T10:55:42.184Z,22.90
2018-11-26T10:58:13.421Z,23.27
2018-11-26T11:00:49.268Z,23.70
2018-11-26T11:03:19.840Z,21.60
2018-11-26T11:05:50.877Z,24.13
2018-11-26T11:08:21.609Z,24.73
2018-11-26T11:10:52.623Z,23.60
2018-11-26T11:13:23.468Z,24.67
2018-11-26T11:15:53.856Z,24.23
2018-11-26T11:18:25.009Z,23.70
2018-11-26T11:20:55.660Z,24.70
2018-11-26T11:23:26.401Z,24.30
2018-11-26T11:25:56.965Z,25.03
2018-11-26T11:28:27.623Z,24.40
2018-11-26T11:30:59.029Z,26.53
2018-11-26T11:33:30.703Z,24.50
2018-11-26T11:36:01.041Z,25.13
2018-11-26T11:38:31.680Z,25.30
2018-11-26T11:41:03.085Z,23.13
2018-11-26T11:43:40.446Z,24.20
2018-11-26T11:46:11.005Z,24.57
2018-11-26T11:48:41.597Z,24.80
2018-11-26T11:51:12.190Z,23.30
2018-11-26T11:53:42.922Z,24.67
2018-11-26T11:56:13.613Z,24.03
2018-11-26T11:58:44.199Z,22.90
2018-11-26T12:01:14.901Z,22.73
2018-11-26T12:03:45.476Z,23.00
2018-11-26T12:06:17.852Z,24.70
2018-11-26T12:08:48.457Z,23.13
2018-11-26T12:11:19.046Z,22.93
2018-11-26T12:13:49.749Z,21.30
2018-11-26T12:16:20.499Z,22.23
2018-11-26T12:18:51.241Z,23.43
2018-11-26T12:21:21.842Z,21.97
2018-11-26T12:23:52.719Z,24.30
2018-11-26T12:26:23.311Z,23.07
2018-11-26T12:28:53.953Z,21.87
2018-11-26T12:31:24.702Z,21.03
2018-11-26T12:33:55.715Z,21.43
2018-11-26T12:36:26.344Z,23.40
2018-11-26T12:38:56.927Z,20.73
2018-11-26T12:41:27.507Z,22.37
2018-11-26T12:43:58.114Z,20.80
2018-11-26T12:46:28.994Z,20.83
2018-11-26T12:49:00.683Z,21.43
2018-11-26T12:51:31.295Z,20.33
2018-11-26T12:54:02.686Z,21.20
2018-11-26T12:56:33.254Z,21.97
2018-11-26T12:59:03.931Z,21.10
2018-11-26T13:01:34.602Z,20.97
2018-11-26T13:04:05.326Z,22.37
2018-11-26T13:06:35.986Z,21.33
2018-11-26T13:09:08.451Z,20.13
2018-11-26T13:11:39.054Z,19.57
2018-11-26T13:14:09.716Z,18.60
2018-11-26T13:16:40.536Z,20.80
2018-11-26T13:19:11.106Z,19.97
2018-11-26T13:21:41.782Z,20.03
2018-11-26T13:24:12.472Z,19.10
2018-11-26T13:26:43.783Z,17.73
2018-11-26T13:29:14.817Z,18.50
2018-11-26T13:31:45.570Z,18.47
2018-11-26T13:34:16.493Z,18.77
2018-11-26T13:36:47.193Z,17.73
2018-11-26T13:39:18.068Z,19.60
2018-11-26T13:41:48.970Z,18.67
2018-11-26T13:44:19.874Z,17.33
2018-11-26T13:46:50.578Z,17.77
2018-11-26T13:49:21.608Z,16.60
2018-11-26T13:51:52.738Z,19.23
2018-11-26T13:54:23.354Z,19.40
2018-11-26T13:56:53.968Z,18.17
2018-11-26T13:59:24.751Z,17.97
2018-11-26T14:01:55.933Z,18.65
2018-11-26T14:04:26.945Z,17.27
2018-11-26T14:06:57.560Z,16.70
2018-11-26T14:09:28.279Z,19.73
2018-11-26T14:11:58.895Z,21.00
2018-11-26T14:14:29.618Z,20.17
2018-11-26T14:17:00.818Z,17.47
2018-11-26T14:19:31.454Z,18.07
2018-11-26T14:22:02.299Z,16.70
2018-11-26T14:24:33.304Z,19.17
2018-11-26T14:27:04.238Z,17.83
2018-11-26T14:29:35.690Z,17.63
2018-11-26T14:32:07.283Z,16.52
2018-11-26T14:34:38.591Z,16.57
2018-11-26T14:37:09.274Z,17.20
2018-11-26T14:39:39.962Z,15.87
2018-11-26T14:42:10.286Z,16.67
2018-11-26T14:44:40.718Z,18.27
2018-11-26T14:47:11.341Z,16.67
2018-11-26T14:49:41.966Z,15.47
2018-11-26T14:52:12.662Z,16.50
2018-11-26T14:54:43.341Z,17.50
2018-11-26T14:57:14.022Z,16.87
2018-11-26T14:59:44.906Z,15.85
2018-11-26T15:02:15.537Z,16.80
2018-11-26T15:04:46.488Z,15.90
2018-11-26T15:07:17.103Z,17.20
2018-11-26T15:09:47.942Z,16.20
2018-11-26T15:12:18.758Z,16.40
2018-11-26T15:14:49.420Z,15.90
2018-11-26T15:17:20.343Z,14.75
2018-11-26T15:19:51.665Z,14.55
2018-11-26T15:22:22.717Z,14.77
2018-11-26T15:24:53.334Z,13.47
2018-11-26T15:27:24.018Z,14.90
2018-11-26T15:29:54.602Z,13.67
2018-11-26T15:32:26.071Z,12.93
2018-11-26T15:34:57.902Z,12.50
2018-11-26T15:37:29.139Z,13.68
2018-11-26T15:39:59.660Z,15.70
2018-11-26T15:42:30.411Z,13.10
2018-11-26T15:45:01.341Z,15.00
2018-11-26T15:47:32.554Z,12.85
2018-11-26T15:50:04.132Z,13.00
2018-11-26T15:52:35.150Z,13.95
2018-11-26T15:55:07.873Z,13.75
2018-11-26T15:57:38.837Z,13.38
2018-11-26T16:00:27.846Z,17.23
2018-11-26T16:02:58.864Z,11.35
2018-11-26T16:05:32.167Z,13.13
2018-11-26T16:08:10.067Z,12.07
2018-11-26T16:10:41.381Z,12.30
2018-11-26T16:13:14.913Z,12.70
2018-11-26T16:15:46.602Z,12.90
2018-11-26T16:18:19.825Z,13.15
2018-11-26T16:20:51.814Z,12.40
2018-11-26T16:23:22.798Z,12.37
2018-11-26T16:25:54.156Z,12.50
2018-11-26T16:28:25.298Z,13.05
2018-11-26T16:30:56.040Z,13.13
2018-11-26T16:33:26.913Z,13.65
2018-11-26T16:35:57.915Z,14.70
2018-11-26T16:38:28.941Z,13.88
2018-11-26T16:41:00.289Z,13.73
2018-11-26T16:43:31.243Z,14.43
2018-11-26T16:46:02.050Z,13.57
2018-11-26T16:48:33.005Z,14.98
2018-11-26T16:51:03.954Z,15.40
2018-11-26T16:53:35.887Z,14.85
2018-11-26T16:56:07.018Z,13.73
2018-11-26T16:58:38.107Z,13.57
2018-11-26T17:01:09.071Z,14.63
2018-11-26T17:03:39.658Z,15.47
2018-11-26T17:06:10.294Z,15.50
2018-11-26T17:08:41.086Z,14.47
2018-11-26T17:11:12.043Z,14.75
2018-11-26T17:13:42.917Z,14.87
2018-11-26T17:16:13.550Z,14.63
2018-11-26T17:18:44.341Z,16.07
2018-11-26T17:21:15.702Z,15.35
2018-11-26T17:23:46.640Z,17.10
2018-11-26T17:26:17.287Z,18.23
2018-11-26T17:28:47.913Z,67.20
2018-11-26T17:31:19.682Z,94.10
2018-11-26T17:33:50.609Z,27.07
2018-11-26T17:36:21.443Z,18.20
2018-11-26T17:38:52.595Z,17.05
2018-11-26T17:41:23.797Z,25.60
2018-11-26T17:43:54.474Z,21.40
2018-11-26T17:46:25.422Z,17.90
2018-11-26T17:48:56.435Z,18.15
2018-11-26T17:51:27.697Z,16.40
2018-11-26T17:53:58.055Z,15.83
2018-11-26T17:56:28.770Z,19.50
2018-11-26T17:58:59.402Z,21.70
2018-11-26T18:01:35.469Z,18.60
2018-11-26T18:04:07.374Z,20.50
2018-11-26T18:06:38.229Z,23.90
2018-11-26T18:09:12.267Z,25.33
2018-11-26T18:11:42.890Z,25.20
2018-11-26T18:14:14.122Z,21.43
2018-11-26T18:16:44.789Z,45.43
2018-11-26T18:19:15.414Z,21.67
2018-11-26T18:21:46.015Z,22.30
2018-11-26T18:24:16.682Z,23.07
2018-11-26T18:26:47.402Z,26.70
2018-11-26T18:29:19.287Z,24.70
2018-11-26T18:31:49.999Z,23.77
2018-11-26T18:34:20.905Z,23.70
2018-11-26T18:36:51.600Z,29.33
2018-11-26T18:39:22.189Z,27.90
2018-11-26T18:41:52.841Z,20.80
2018-11-26T18:44:23.248Z,19.00
2018-11-26T18:46:53.933Z,18.50
2018-11-26T18:49:24.646Z,18.83
2018-11-26T18:51:55.364Z,18.00
2018-11-26T18:54:26.055Z,17.53
2018-11-26T18:56:57.411Z,16.37
2018-11-26T18:59:28.270Z,17.90
2018-11-26T19:02:00.012Z,17.80
2018-11-26T19:04:30.742Z,18.67
2018-11-26T19:07:03.078Z,18.30
2018-11-26T19:09:33.906Z,19.90
2018-11-26T19:12:05.101Z,17.70
2018-11-26T19:14:35.986Z,20.03
2018-11-26T19:17:07.714Z,18.80
2018-11-26T19:19:42.157Z,19.32
2018-11-26T19:22:09.263Z,19.80
2018-11-26T19:24:39.883Z,20.10
2018-11-26T19:27:10.612Z,21.33
2018-11-26T19:29:41.230Z,19.70
2018-11-26T19:32:11.881Z,20.20
2018-11-26T19:34:42.490Z,22.07
2018-11-26T19:37:13.114Z,20.83
2018-11-26T19:39:45.767Z,20.53
2018-11-26T19:42:16.799Z,26.40
2018-11-26T19:44:47.448Z,28.43
2018-11-26T19:47:18.109Z,28.53
2018-11-26T19:49:48.751Z,26.50
2018-11-26T19:52:19.466Z,26.40
2018-11-26T19:54:50.226Z,26.20
2018-11-26T19:57:20.850Z,25.97
2018-11-26T19:59:51.361Z,26.93
2018-11-26T20:02:21.999Z,24.90
2018-11-26T20:04:59.044Z,27.10
2018-11-26T20:07:30.134Z,26.07
2018-11-26T20:10:01.804Z,26.73
2018-11-26T20:12:32.558Z,25.07
2018-11-26T20:15:03.466Z,24.27
2018-11-26T20:17:34.246Z,24.37
2018-11-26T20:20:05.424Z,29.70
2018-11-26T20:22:36.462Z,22.25
2018-11-26T20:25:14.634Z,22.77
2018-11-26T20:27:45.343Z,20.40
2018-11-26T20:30:16.937Z,23.47
2018-11-26T20:32:49.614Z,21.77
2018-11-26T20:35:20.343Z,23.00
2018-11-26T20:37:51.826Z,22.10
2018-11-26T20:40:22.492Z,22.27
2018-11-26T20:42:55.375Z,24.97
2018-11-26T20:45:26.746Z,23.70
2018-11-26T20:47:57.232Z,23.90
2018-11-26T20:50:29.541Z,21.75
2018-11-26T20:53:00.419Z,23.27
2018-11-26T20:55:31.022Z,23.30
2018-11-26T20:58:02.818Z,22.87
2018-11-26T21:00:33.574Z,23.70
2018-11-26T21:03:08.562Z,23.20
2018-11-26T21:05:40.303Z,22.20
2018-11-26T21:08:11.298Z,23.50
2018-11-26T21:10:42.505Z,23.00
2018-11-26T21:13:16.963Z,22.37
2018-11-26T21:15:44.570Z,21.83
2018-11-26T21:18:15.223Z,21.10
2018-11-26T21:20:49.903Z,20.23
2018-11-26T21:23:29.180Z,22.15
2018-11-26T21:26:01.958Z,21.40
2018-11-26T21:28:32.618Z,21.87
2018-11-26T21:31:04.077Z,21.83
2018-11-26T21:33:35.117Z,21.07
2018-11-26T21:36:06.258Z,21.60
2018-11-26T21:38:39.697Z,20.27
2018-11-26T21:41:10.626Z,21.20
2018-11-26T21:43:42.103Z,19.67
2018-11-26T21:46:12.712Z,20.40
2018-11-26T21:48:43.340Z,19.73
2018-11-26T21:51:13.967Z,20.17
2018-11-26T21:53:44.724Z,19.50
2018-11-26T21:56:15.684Z,18.82
2018-11-26T21:58:46.463Z,18.87
2018-11-26T22:01:17.255Z,19.47
2018-11-26T22:03:48.223Z,19.45
2018-11-26T22:06:19.109Z,19.70
2018-11-26T22:08:50.085Z,18.55
2018-11-26T22:11:20.779Z,18.93
2018-11-26T22:13:51.406Z,18.50
2018-11-26T22:16:22.058Z,19.43
2018-11-26T22:18:52.842Z,21.10
2018-11-26T22:21:23.415Z,18.87
2018-11-26T22:23:54.277Z,18.77
2018-11-26T22:26:24.958Z,22.07
2018-11-26T22:28:56.377Z,22.93
2018-11-26T22:31:27.555Z,25.40
2018-11-26T22:33:58.195Z,22.90
2018-11-26T22:36:29.343Z,20.52
2018-11-26T22:39:00.274Z,21.10
2018-11-26T22:41:31.314Z,41.13
2018-11-26T22:44:01.963Z,39.70
2018-11-26T22:46:32.579Z,33.53
2018-11-26T22:49:03.638Z,28.77
2018-11-26T22:51:34.236Z,26.00
2018-11-26T22:54:05.338Z,23.03
2018-11-26T22:56:36.011Z,21.57
2018-11-26T22:59:07.423Z,24.50
2018-11-26T23:01:38.013Z,20.73
2018-11-26T23:04:08.440Z,20.17
2018-11-26T23:06:40.603Z,20.67
2018-11-26T23:09:13.184Z,18.40
2018-11-26T23:11:44.586Z,18.43
2018-11-26T23:14:15.444Z,18.80
2018-11-26T23:16:46.199Z,19.27
2018-11-26T23:19:16.995Z,19.00
2018-11-26T23:21:47.654Z,18.73
2018-11-26T23:24:18.285Z,19.10
2018-11-26T23:26:49.226Z,19.35
2018-11-26T23:29:19.907Z,20.03
2018-11-26T23:31:50.682Z,19.47
2018-11-26T23:34:21.641Z,19.62
2018-11-26T23:36:52.496Z,19.00
2018-11-26T23:39:25.360Z,20.53
2018-11-26T23:41:55.977Z,18.63
2018-11-26T23:44:26.902Z,19.32
2018-11-26T23:46:57.545Z,18.50
2018-11-26T23:49:28.158Z,19.43
2018-11-26T23:51:58.730Z,19.90
2018-11-26T23:54:29.717Z,19.07
2018-11-26T23:57:00.531Z,19.27
2018-11-26T23:59:31.406Z,19.05
